首页
METAR-TAF:

METAR-TAF

机场 :

賓漢頓, 紐約州, 美国

纬度: 42-12-28N, 经度: 075-58-53W, 海拔: 496米

当前天气观测

该预报发布于11分钟前的18:45 UTC
风速8节,风向,在南转南东西南之间变化
温度 25°C
湿度 74%
气压 1019 hPa
能見度: 16.1公里
散云层高于2200英尺

METAR: KBGM 241845Z 19008KT 150V220 10SM SCT022 25/20 A3009 RMK AO2 LTG DSNT W AND NW T02500200

时间: 14:56 (18:56 UTC)

预报

该预报发布于1小时和26分钟前的17:30 UTC
预报有效从24日的 18点(UTC)到 25日的 18点(UTC)
风速8节,风向南转西南,有时为14节阵风
能見度: 10公里
多云层高于4500英尺
短暂存在
从 24日的 23点(UTC)到 25日的 02点(UTC)
风速18节,风向西,有时为30节阵风
能見度: 3.2公里
阴天层高于2000英尺, 积雨云.
雷暴, 雨, 轻雾
从 25日的 0200点(UTC)
风速5节,风向南转西南
能見度: 10公里
散云层高于2500英尺
多云层高于5000英尺
从 25日的 0900点(UTC)
风速5节,风向西
能見度: 10公里
多云层高于2500英尺
从 25日的 1100点(UTC)
风速5节,风向西
能見度: 10公里
多云层高于3500英尺
从 25日的 1400点(UTC)
风速7节,风向西转西北,有时为12节阵风
能見度: 10公里
多云层高于6000英尺

TAF: KBGM 241730Z 2418/2518 20008G14KT P6SM BKN045 TEMPO 2423/2502 28018G30KT 2SM TSRA BR OVC020CB FM250200 21005KT P6SM SCT025 BKN050 FM250900 26005KT P6SM BKN025 FM251100 28005KT P6SM BKN035 FM251400 29007G12KT P6SM BKN060

超过4000个机场的气象观测和天气预报(METAR&TAF报告)。

可查询的气象台以黄色和红色小点在地图上表示。

将鼠标移到小点上方,可查看气象台名称。

然后点击查看天气观测和预报。

如需切换地图:点击带黑十字的绿色按钮放大地图;点击带横线的绿色按钮缩小地图;或者点击绿色箭头查看邻近地区的地图。


METAR-TAF: